createdAt,value
2019-02-17T00:01:26.241Z,10.10
2019-02-17T00:03:54.356Z,10.20
2019-02-17T00:06:22.489Z,10.20
2019-02-17T00:08:50.509Z,10.20
2019-02-17T00:11:18.574Z,10.30
2019-02-17T00:13:46.648Z,10.30
2019-02-17T00:16:14.780Z,10.30
2019-02-17T00:18:42.863Z,10.20
2019-02-17T00:21:11.005Z,10.30
2019-02-17T00:23:39.103Z,10.20
2019-02-17T00:26:07.376Z,10.20
2019-02-17T00:28:35.654Z,10.30
2019-02-17T00:31:03.770Z,10.30
2019-02-17T00:33:31.918Z,10.30
2019-02-17T00:36:00.077Z,10.30
2019-02-17T00:38:28.252Z,10.40
2019-02-17T00:40:56.463Z,10.40
2019-02-17T00:43:24.555Z,10.40
2019-02-17T00:45:52.606Z,10.40
2019-02-17T00:48:20.730Z,10.50
2019-02-17T00:50:48.848Z,10.50
2019-02-17T00:53:17.547Z,10.50
2019-02-17T00:55:45.693Z,10.60
2019-02-17T00:58:13.756Z,10.60
2019-02-17T01:00:41.806Z,10.60
2019-02-17T01:03:09.968Z,10.60
2019-02-17T01:05:39.622Z,10.70
2019-02-17T01:08:08.086Z,10.70
2019-02-17T01:10:36.183Z,10.70
2019-02-17T01:13:04.322Z,10.80
2019-02-17T01:15:32.378Z,10.80
2019-02-17T01:18:00.457Z,10.80
2019-02-17T01:20:30.790Z,10.80
2019-02-17T01:22:58.972Z,10.80
2019-02-17T01:25:27.123Z,10.80
2019-02-17T01:27:55.181Z,10.90
2019-02-17T01:30:23.256Z,10.90
2019-02-17T01:32:51.472Z,10.90
2019-02-17T01:35:19.550Z,10.90
2019-02-17T01:37:47.671Z,11.00
2019-02-17T01:40:15.862Z,11.00
2019-02-17T01:42:43.968Z,11.00
2019-02-17T01:45:12.267Z,11.00
2019-02-17T01:47:40.375Z,11.00
2019-02-17T01:50:08.593Z,11.00
2019-02-17T01:52:37.680Z,10.90
2019-02-17T01:55:05.800Z,11.00
2019-02-17T01:57:33.855Z,10.90
2019-02-17T02:00:02.252Z,10.90
2019-02-17T02:02:30.368Z,10.90
2019-02-17T02:04:59.414Z,10.90
2019-02-17T02:07:27.476Z,10.90
2019-02-17T02:09:55.512Z,10.90
2019-02-17T02:12:23.745Z,10.90
2019-02-17T02:14:51.909Z,10.90
2019-02-17T02:17:20.065Z,10.80
2019-02-17T02:19:48.363Z,10.80
2019-02-17T02:22:16.468Z,10.70
2019-02-17T02:24:44.789Z,10.50
2019-02-17T02:27:12.989Z,10.40
2019-02-17T02:29:41.586Z,10.30
2019-02-17T02:32:09.732Z,10.20
2019-02-17T02:34:37.861Z,10.00
2019-02-17T02:37:06.100Z,10.00
2019-02-17T02:39:34.953Z,9.90
2019-02-17T02:42:03.089Z,9.80
2019-02-17T02:44:31.228Z,9.80
2019-02-17T02:46:59.964Z,9.70
2019-02-17T02:49:28.137Z,9.70
2019-02-17T02:51:56.451Z,9.70
2019-02-17T02:54:24.500Z,9.70
2019-02-17T02:56:52.619Z,9.70
2019-02-17T02:59:20.638Z,9.60
2019-02-17T03:01:48.758Z,9.50
2019-02-17T03:04:16.876Z,9.50
2019-02-17T03:06:56.116Z,9.50
2019-02-17T03:09:25.580Z,9.40
2019-02-17T03:11:54.062Z,9.40
2019-02-17T03:14:22.219Z,9.30
2019-02-17T03:16:50.391Z,9.30
2019-02-17T03:19:18.586Z,9.30
2019-02-17T03:21:46.798Z,9.40
2019-02-17T03:24:14.937Z,9.30
2019-02-17T03:26:43.051Z,9.30
2019-02-17T03:29:11.186Z,9.30
2019-02-17T03:31:39.500Z,9.40
2019-02-17T03:34:07.715Z,9.30
2019-02-17T03:36:35.865Z,9.30
2019-02-17T03:39:05.465Z,9.30
2019-02-17T03:41:34.003Z,9.30
2019-02-17T03:44:02.271Z,9.30
2019-02-17T03:46:30.348Z,9.20
2019-02-17T03:48:58.459Z,9.20
2019-02-17T03:51:26.579Z,9.10
2019-02-17T03:53:54.937Z,9.10
2019-02-17T03:56:23.149Z,9.20
2019-02-17T03:58:51.216Z,9.20
2019-02-17T04:01:19.563Z,9.30
2019-02-17T04:03:47.942Z,9.30
2019-02-17T04:06:16.066Z,9.20
2019-02-17T04:08:44.155Z,9.20
2019-02-17T04:11:12.179Z,9.20
2019-02-17T04:13:40.367Z,9.30
2019-02-17T04:16:08.578Z,9.30
2019-02-17T04:18:36.586Z,9.30
2019-02-17T04:21:04.677Z,9.40
2019-02-17T04:23:32.749Z,9.40
2019-02-17T04:26:00.882Z,9.40
2019-02-17T04:28:29.013Z,9.40
2019-02-17T04:30:57.167Z,9.40
2019-02-17T04:33:25.323Z,9.40
2019-02-17T04:35:53.394Z,9.30
2019-02-17T04:38:21.561Z,9.30
2019-02-17T04:40:50.746Z,9.40
2019-02-17T04:43:18.878Z,9.40
2019-02-17T04:45:46.926Z,9.40
2019-02-17T04:48:16.121Z,9.30
2019-02-17T04:50:44.163Z,9.30
2019-02-17T04:53:12.302Z,9.30
2019-02-17T04:55:40.369Z,9.30
2019-02-17T04:58:08.561Z,9.20
2019-02-17T05:00:40.302Z,9.20
2019-02-17T05:03:06.765Z,9.20
2019-02-17T05:05:34.861Z,9.20
2019-02-17T05:08:03.016Z,9.20
2019-02-17T05:10:31.073Z,9.20
2019-02-17T05:12:59.126Z,9.20
2019-02-17T05:15:27.178Z,9.10
2019-02-17T05:17:55.323Z,9.10
2019-02-17T05:20:23.463Z,9.10
2019-02-17T05:22:51.683Z,9.00
2019-02-17T05:25:19.848Z,9.00
2019-02-17T05:27:48.048Z,8.90
2019-02-17T05:30:16.192Z,8.90
2019-02-17T05:32:44.342Z,8.90
2019-02-17T05:35:12.389Z,8.90
2019-02-17T05:37:40.551Z,8.90
2019-02-17T05:40:08.864Z,8.90
2019-02-17T05:42:37.033Z,8.90
2019-02-17T05:45:05.230Z,8.90
2019-02-17T05:47:33.342Z,8.90
2019-02-17T05:50:01.440Z,8.90
2019-02-17T05:52:29.532Z,8.80
2019-02-17T05:54:57.661Z,8.90
2019-02-17T05:57:26.782Z,8.80
2019-02-17T05:59:54.839Z,8.80
2019-02-17T06:02:23.038Z,8.80
2019-02-17T06:04:51.113Z,8.70
2019-02-17T06:07:19.349Z,8.70
2019-02-17T06:09:47.639Z,8.80
2019-02-17T06:12:15.721Z,8.80
2019-02-17T06:14:43.904Z,8.80
2019-02-17T06:17:11.957Z,8.70
2019-02-17T06:19:40.137Z,8.70
2019-02-17T06:22:08.379Z,8.70
2019-02-17T06:24:36.509Z,8.70
2019-02-17T06:27:04.712Z,8.70
2019-02-17T06:29:32.851Z,8.70
2019-02-17T06:32:01.014Z,8.70
2019-02-17T06:34:29.129Z,8.70
2019-02-17T06:36:57.235Z,8.60
2019-02-17T06:39:25.382Z,8.60
2019-02-17T06:41:53.499Z,8.50
2019-02-17T06:44:21.637Z,8.50
2019-02-17T06:46:54.006Z,8.40
2019-02-17T06:49:22.056Z,8.30
2019-02-17T06:51:50.396Z,8.30
2019-02-17T06:54:18.633Z,8.30
2019-02-17T06:56:53.398Z,8.20
2019-02-17T06:59:21.643Z,8.10
2019-02-17T07:01:49.647Z,8.10
2019-02-17T07:04:19.768Z,8.00
2019-02-17T07:06:58.411Z,8.00
2019-02-17T07:09:26.606Z,8.00
2019-02-17T07:11:56.823Z,7.90
2019-02-17T07:14:25.006Z,7.90
2019-02-17T07:16:53.234Z,7.80
2019-02-17T07:19:21.387Z,7.80
2019-02-17T07:21:49.614Z,7.80
2019-02-17T07:24:17.814Z,7.80
2019-02-17T07:26:46.299Z,7.90
2019-02-17T07:29:16.689Z,7.90
2019-02-17T07:31:44.341Z,7.90
2019-02-17T07:34:12.518Z,7.90
2019-02-17T07:36:40.545Z,7.90
2019-02-17T07:39:08.654Z,7.90
2019-02-17T07:41:36.671Z,7.90
2019-02-17T07:44:04.746Z,8.00
2019-02-17T07:46:32.940Z,7.90
2019-02-17T07:49:01.265Z,8.00
2019-02-17T07:51:32.922Z,8.00
2019-02-17T07:54:01.168Z,8.00
2019-02-17T07:56:29.515Z,8.00
2019-02-17T07:58:57.549Z,8.00
2019-02-17T08:01:25.774Z,8.10
2019-02-17T08:03:53.833Z,8.00
2019-02-17T08:06:21.869Z,7.90
2019-02-17T08:08:49.917Z,8.00
2019-02-17T08:11:18.003Z,8.00
2019-02-17T08:13:46.122Z,8.00
2019-02-17T08:16:14.152Z,8.00
2019-02-17T08:18:42.276Z,8.00
2019-02-17T08:21:10.352Z,8.10
2019-02-17T08:23:38.431Z,8.00
2019-02-17T08:26:06.617Z,8.10
2019-02-17T08:28:34.707Z,8.10
2019-02-17T08:31:02.766Z,8.00
2019-02-17T08:33:30.969Z,8.10
2019-02-17T08:35:59.057Z,8.30
2019-02-17T08:38:27.263Z,8.40
2019-02-17T08:40:55.318Z,8.50
2019-02-17T08:43:23.462Z,8.60
2019-02-17T08:45:51.637Z,8.70
2019-02-17T08:48:19.721Z,8.80
2019-02-17T08:50:48.014Z,8.90
2019-02-17T08:53:16.315Z,9.10
2019-02-17T08:55:44.340Z,9.10
2019-02-17T08:58:12.448Z,9.20
2019-02-17T09:00:40.741Z,9.20
2019-02-17T09:03:08.932Z,9.30
2019-02-17T09:05:43.885Z,9.30
2019-02-17T09:08:07.099Z,9.30
2019-02-17T09:10:35.329Z,9.40
2019-02-17T09:13:03.422Z,9.50
2019-02-17T09:15:31.478Z,9.50
2019-02-17T09:17:59.509Z,9.60
2019-02-17T09:20:27.601Z,9.60
2019-02-17T09:22:55.791Z,9.70
2019-02-17T09:25:23.921Z,9.80
2019-02-17T09:27:52.172Z,9.90
2019-02-17T09:30:20.529Z,10.00
2019-02-17T09:32:49.777Z,10.10
2019-02-17T09:35:17.961Z,10.20
2019-02-17T09:37:46.055Z,10.30
2019-02-17T09:40:14.112Z,10.30
2019-02-17T09:42:42.218Z,10.30
2019-02-17T09:45:12.473Z,10.30
2019-02-17T09:47:40.888Z,10.40
2019-02-17T09:50:10.920Z,10.50
2019-02-17T09:52:39.156Z,10.80
2019-02-17T09:55:07.645Z,11.10
2019-02-17T09:57:35.948Z,11.30
2019-02-17T10:00:04.531Z,11.60
2019-02-17T10:02:33.079Z,11.90
2019-02-17T10:05:04.247Z,12.10
2019-02-17T10:07:32.460Z,12.10
2019-02-17T10:10:00.683Z,11.80
2019-02-17T10:12:28.846Z,11.80
2019-02-17T10:14:56.971Z,12.00
2019-02-17T10:17:31.970Z,12.20
2019-02-17T10:20:00.223Z,12.40
2019-02-17T10:22:28.386Z,12.50
2019-02-17T10:24:56.582Z,12.60
2019-02-17T10:27:24.701Z,12.50
2019-02-17T10:29:52.891Z,12.30
2019-02-17T10:32:20.942Z,12.10
2019-02-17T10:34:49.289Z,12.10
2019-02-17T10:37:17.436Z,12.10
2019-02-17T10:39:45.721Z,12.00
2019-02-17T10:42:13.822Z,11.90
2019-02-17T10:44:41.865Z,11.90
2019-02-17T10:47:09.986Z,11.90
2019-02-17T10:49:38.063Z,12.00
2019-02-17T10:52:06.113Z,12.00
2019-02-17T10:54:34.259Z,12.10
2019-02-17T10:57:02.352Z,12.10
2019-02-17T10:59:30.431Z,12.10
2019-02-17T11:01:58.534Z,12.00
2019-02-17T11:04:26.609Z,12.00
2019-02-17T11:06:54.713Z,12.10
2019-02-17T11:09:24.324Z,12.10
2019-02-17T11:11:52.858Z,12.10
2019-02-17T11:14:21.133Z,12.10
2019-02-17T11:16:50.548Z,12.20
2019-02-17T11:19:18.687Z,12.30
2019-02-17T11:21:46.866Z,12.30
2019-02-17T11:24:15.029Z,12.30
2019-02-17T11:26:43.283Z,12.30
2019-02-17T11:29:11.488Z,12.40
2019-02-17T11:31:41.117Z,12.50
2019-02-17T11:34:10.943Z,12.50
2019-02-17T11:36:39.206Z,12.60
2019-02-17T11:39:15.509Z,12.60
2019-02-17T11:41:43.847Z,12.70
2019-02-17T11:44:12.219Z,12.70
2019-02-17T11:46:40.449Z,12.70
2019-02-17T11:49:08.746Z,12.70
2019-02-17T11:51:37.507Z,12.70
2019-02-17T11:54:06.002Z,12.80
2019-02-17T11:56:34.944Z,12.80
2019-02-17T11:59:03.594Z,12.80
2019-02-17T12:01:31.982Z,12.80
2019-02-17T12:04:00.211Z,12.80
2019-02-17T12:06:28.245Z,12.90
2019-02-17T12:08:58.606Z,13.00
2019-02-17T12:11:29.586Z,13.00
2019-02-17T12:13:57.910Z,13.00
2019-02-17T12:16:36.547Z,13.10
2019-02-17T12:18:56.366Z,13.10
2019-02-17T12:21:39.332Z,13.20
2019-02-17T12:24:15.377Z,13.20
2019-02-17T12:27:21.334Z,13.30
2019-02-17T12:29:56.286Z,13.30
2019-02-17T12:32:28.858Z,13.40
2019-02-17T12:34:56.991Z,13.40
2019-02-17T12:37:28.422Z,13.40
2019-02-17T12:39:56.568Z,13.40
2019-02-17T12:42:24.717Z,13.40
2019-02-17T12:44:52.929Z,13.50
2019-02-17T12:47:21.071Z,13.50
2019-02-17T12:49:49.890Z,13.50
2019-02-17T12:52:18.195Z,13.60
2019-02-17T12:54:46.618Z,13.50
2019-02-17T12:57:14.916Z,13.60
2019-02-17T12:59:43.451Z,13.60
2019-02-17T13:02:11.489Z,13.70
2019-02-17T13:04:39.661Z,13.70
2019-02-17T13:07:07.770Z,13.70
2019-02-17T13:09:35.884Z,13.70
2019-02-17T13:12:04.099Z,13.80
2019-02-17T13:14:32.318Z,13.80
2019-02-17T13:17:00.441Z,13.90
2019-02-17T13:19:28.550Z,14.00
2019-02-17T13:21:56.756Z,14.00
2019-02-17T13:24:27.430Z,14.10
2019-02-17T13:26:55.842Z,14.10
2019-02-17T13:29:24.289Z,14.10
2019-02-17T13:31:52.422Z,14.10
2019-02-17T13:34:20.507Z,14.10
2019-02-17T13:36:48.650Z,14.10
2019-02-17T13:39:17.071Z,14.20
2019-02-17T13:41:45.175Z,14.20
2019-02-17T13:44:13.246Z,14.20
2019-02-17T13:46:41.331Z,14.20
2019-02-17T13:49:09.535Z,14.20
2019-02-17T13:51:37.872Z,14.20
2019-02-17T13:54:06.022Z,14.20
2019-02-17T13:56:34.111Z,14.20
2019-02-17T13:59:02.261Z,14.20
2019-02-17T14:01:30.338Z,14.20
2019-02-17T14:03:58.460Z,14.20
2019-02-17T14:06:26.788Z,14.20
2019-02-17T14:08:54.858Z,14.20
2019-02-17T14:11:23.172Z,14.30
2019-02-17T14:13:51.433Z,14.30
2019-02-17T14:16:19.451Z,14.20
2019-02-17T14:18:47.816Z,14.20
2019-02-17T14:21:15.956Z,14.20
2019-02-17T14:23:44.160Z,14.20
2019-02-17T14:26:12.465Z,14.20
2019-02-17T14:28:40.688Z,14.20
2019-02-17T14:31:11.216Z,14.30
2019-02-17T14:33:39.296Z,14.20
2019-02-17T14:36:07.504Z,14.30
2019-02-17T14:38:35.590Z,14.20
2019-02-17T14:41:03.781Z,14.20
2019-02-17T14:43:31.863Z,14.30
2019-02-17T14:46:00.110Z,14.30
2019-02-17T14:48:28.482Z,14.30
2019-02-17T14:50:56.721Z,14.30
2019-02-17T14:53:25.072Z,14.30
2019-02-17T14:55:53.183Z,14.30
2019-02-17T14:58:21.311Z,14.30
2019-02-17T15:00:49.616Z,14.30
2019-02-17T15:03:17.703Z,14.30
2019-02-17T15:05:45.936Z,14.30
2019-02-17T15:08:14.178Z,14.30
2019-02-17T15:10:42.394Z,14.30
2019-02-17T15:13:10.666Z,14.20
2019-02-17T15:15:38.879Z,14.20
2019-02-17T15:18:07.357Z,14.10
2019-02-17T15:20:35.489Z,14.00
2019-02-17T15:23:03.916Z,14.10
2019-02-17T15:25:32.151Z,14.00
2019-02-17T15:28:00.585Z,13.90
2019-02-17T15:30:28.872Z,13.90
2019-02-17T15:33:03.696Z,13.80
2019-02-17T15:35:26.936Z,13.80
2019-02-17T15:37:55.001Z,13.70
2019-02-17T15:40:23.609Z,13.70
2019-02-17T15:42:52.779Z,13.70
2019-02-17T15:45:21.030Z,13.60
2019-02-17T15:47:49.392Z,13.50
2019-02-17T15:50:17.817Z,13.50
2019-02-17T15:52:45.958Z,13.50
2019-02-17T15:55:14.112Z,13.40
2019-02-17T15:57:42.197Z,13.40
2019-02-17T16:00:12.586Z,13.40
2019-02-17T16:02:40.792Z,13.30
2019-02-17T16:05:09.887Z,13.30
2019-02-17T16:07:38.358Z,13.20
2019-02-17T16:10:07.923Z,13.20
2019-02-17T16:12:36.085Z,13.10
2019-02-17T16:15:06.472Z,13.10
2019-02-17T16:17:34.855Z,13.20
2019-02-17T16:20:03.395Z,13.20
2019-02-17T16:22:31.444Z,13.20
2019-02-17T16:24:59.583Z,13.20
2019-02-17T16:27:28.000Z,13.20
2019-02-17T16:29:56.235Z,13.30
2019-02-17T16:32:24.452Z,13.30
2019-02-17T16:34:52.750Z,13.30
2019-02-17T16:37:20.862Z,13.20
2019-02-17T16:39:49.030Z,13.20
2019-02-17T16:42:18.191Z,13.20
2019-02-17T16:44:46.284Z,13.10
2019-02-17T16:47:14.355Z,13.10
2019-02-17T16:49:42.472Z,13.00
2019-02-17T16:52:10.580Z,13.10
2019-02-17T16:54:38.717Z,13.00
2019-02-17T16:57:06.863Z,13.00
2019-02-17T16:59:34.997Z,12.90
2019-02-17T17:02:03.448Z,13.00
2019-02-17T17:04:31.559Z,13.00
2019-02-17T17:07:01.064Z,13.10
2019-02-17T17:09:29.331Z,13.10
2019-02-17T17:11:57.431Z,13.20
2019-02-17T17:14:25.596Z,13.20
2019-02-17T17:16:54.070Z,13.20
2019-02-17T17:19:22.219Z,13.10
2019-02-17T17:21:50.369Z,13.10
2019-02-17T17:24:18.592Z,13.00
2019-02-17T17:26:47.002Z,13.00
2019-02-17T17:29:15.196Z,12.90
2019-02-17T17:31:43.259Z,12.80
2019-02-17T17:34:13.209Z,12.80
2019-02-17T17:36:41.487Z,12.70
2019-02-17T17:39:09.783Z,12.60
2019-02-17T17:41:38.260Z,12.60
2019-02-17T17:44:06.404Z,12.50
2019-02-17T17:46:34.618Z,12.50
2019-02-17T17:49:02.907Z,12.40
2019-02-17T17:51:31.114Z,12.30
2019-02-17T17:53:59.374Z,12.20
2019-02-17T17:56:27.600Z,12.20
2019-02-17T17:58:55.877Z,12.10
2019-02-17T18:01:24.082Z,12.10
2019-02-17T18:03:52.298Z,12.10
2019-02-17T18:06:21.221Z,12.10
2019-02-17T18:08:49.303Z,12.10
2019-02-17T18:11:17.489Z,12.00
2019-02-17T18:13:47.187Z,12.00
2019-02-17T18:16:15.895Z,11.90
2019-02-17T18:18:44.697Z,11.80
2019-02-17T18:21:12.961Z,11.80
2019-02-17T18:23:42.075Z,11.80
2019-02-17T18:26:12.549Z,11.70
2019-02-17T18:28:40.893Z,11.70
2019-02-17T18:31:08.984Z,11.70
2019-02-17T18:33:37.083Z,11.60
2019-02-17T18:36:05.143Z,11.60
2019-02-17T18:38:33.276Z,11.50
2019-02-17T18:41:01.739Z,11.40
2019-02-17T18:43:30.607Z,11.40
2019-02-17T18:45:58.875Z,11.30
2019-02-17T18:48:29.429Z,11.20
2019-02-17T18:50:59.474Z,11.10
2019-02-17T18:53:33.272Z,11.10
2019-02-17T18:56:01.398Z,11.00
2019-02-17T18:58:29.553Z,11.00
2019-02-17T19:00:57.689Z,10.90
2019-02-17T19:03:25.751Z,10.80
2019-02-17T19:05:53.869Z,10.80
2019-02-17T19:08:23.248Z,10.80
2019-02-17T19:10:51.652Z,10.70
2019-02-17T19:13:19.841Z,10.70
2019-02-17T19:15:48.025Z,10.70
2019-02-17T19:18:16.346Z,10.60
2019-02-17T19:20:44.738Z,10.60
2019-02-17T19:23:12.967Z,10.60
2019-02-17T19:25:41.104Z,10.60
2019-02-17T19:28:09.303Z,10.60
2019-02-17T19:30:37.340Z,10.50
2019-02-17T19:33:05.433Z,10.50
2019-02-17T19:35:41.510Z,10.40
2019-02-17T19:38:03.514Z,10.40
2019-02-17T19:40:31.711Z,10.30
2019-02-17T19:42:59.865Z,10.20
2019-02-17T19:45:27.954Z,10.20
2019-02-17T19:47:56.203Z,10.20
2019-02-17T19:50:24.216Z,10.20
2019-02-17T19:52:52.384Z,10.20
2019-02-17T19:55:20.590Z,10.20
2019-02-17T19:57:48.690Z,10.10
2019-02-17T20:00:16.808Z,10.10
2019-02-17T20:03:04.459Z,10.00
2019-02-17T20:05:35.602Z,10.00
2019-02-17T20:08:03.985Z,10.00
2019-02-17T20:10:32.342Z,10.00
2019-02-17T20:13:00.716Z,10.00
2019-02-17T20:15:32.937Z,9.90
2019-02-17T20:18:02.660Z,9.90
2019-02-17T20:20:33.834Z,9.90
2019-02-17T20:23:05.538Z,9.90
2019-02-17T20:25:33.844Z,9.90
2019-02-17T20:28:02.814Z,9.90
2019-02-17T20:30:33.128Z,9.80
2019-02-17T20:33:04.308Z,9.80
2019-02-17T20:35:35.468Z,9.80
2019-02-17T20:38:03.691Z,9.80
2019-02-17T20:40:31.964Z,9.70
2019-02-17T20:43:00.256Z,9.70
2019-02-17T20:45:30.162Z,9.70
2019-02-17T20:47:59.246Z,9.70
2019-02-17T20:50:30.443Z,9.60
2019-02-17T20:53:00.347Z,9.60
2019-02-17T20:55:28.664Z,9.50
2019-02-17T20:57:56.809Z,9.50
2019-02-17T21:00:26.750Z,9.50
2019-02-17T21:02:54.897Z,9.50
2019-02-17T21:05:23.144Z,9.40
2019-02-17T21:07:51.187Z,9.40
2019-02-17T21:10:19.329Z,9.40
2019-02-17T21:12:47.757Z,9.30
2019-02-17T21:15:17.657Z,9.30
2019-02-17T21:17:45.784Z,9.30
2019-02-17T21:20:15.148Z,9.30
2019-02-17T21:22:43.257Z,9.30
2019-02-17T21:25:11.893Z,9.20
2019-02-17T21:27:40.017Z,9.20
2019-02-17T21:30:08.942Z,9.20
2019-02-17T21:32:37.125Z,9.10
2019-02-17T21:35:09.839Z,9.10
2019-02-17T21:37:38.065Z,9.00
2019-02-17T21:40:08.523Z,8.90
2019-02-17T21:42:36.795Z,8.90
2019-02-17T21:45:06.288Z,8.90
2019-02-17T21:47:35.416Z,8.80
2019-02-17T21:50:04.387Z,8.80
2019-02-17T21:52:33.474Z,8.80
2019-02-17T21:55:01.742Z,8.70
2019-02-17T21:57:31.606Z,8.70
2019-02-17T21:59:59.800Z,8.70
2019-02-17T22:02:30.930Z,8.60
2019-02-17T22:04:59.782Z,8.60
2019-02-17T22:07:28.395Z,8.60
2019-02-17T22:09:56.565Z,9.00
2019-02-17T22:12:24.724Z,8.80
2019-02-17T22:14:53.123Z,8.70
2019-02-17T22:17:21.195Z,8.60
2019-02-17T22:19:49.272Z,8.50
2019-02-17T22:22:17.679Z,8.50
2019-02-17T22:24:46.798Z,8.40
2019-02-17T22:27:14.929Z,8.40
2019-02-17T22:29:43.125Z,8.40
2019-02-17T22:32:11.287Z,8.30
2019-02-17T22:34:39.404Z,8.30
2019-02-17T22:37:07.555Z,8.30
2019-02-17T22:39:35.625Z,8.30
2019-02-17T22:42:03.818Z,8.20
2019-02-17T22:44:33.040Z,8.20
2019-02-17T22:47:01.212Z,8.20
2019-02-17T22:49:29.300Z,8.10
2019-02-17T22:51:57.790Z,8.10
2019-02-17T22:54:25.957Z,8.00
2019-02-17T22:56:54.595Z,8.00
2019-02-17T22:59:22.763Z,8.00
2019-02-17T23:01:51.119Z,8.00
2019-02-17T23:04:20.490Z,8.00
2019-02-17T23:06:54.235Z,8.00
2019-02-17T23:09:18.941Z,7.90
2019-02-17T23:11:47.004Z,7.80
2019-02-17T23:14:15.215Z,7.80
2019-02-17T23:16:43.235Z,7.80
2019-02-17T23:19:11.337Z,7.70
2019-02-17T23:21:41.904Z,7.70
2019-02-17T23:24:10.313Z,7.70
2019-02-17T23:26:38.412Z,7.70
2019-02-17T23:29:06.510Z,7.70
2019-02-17T23:31:34.711Z,7.70
2019-02-17T23:34:02.782Z,7.70
2019-02-17T23:36:30.871Z,7.60
2019-02-17T23:38:58.979Z,7.60
2019-02-17T23:41:27.124Z,7.50
2019-02-17T23:43:58.649Z,7.50
2019-02-17T23:46:27.274Z,7.40
2019-02-17T23:48:55.572Z,7.40
2019-02-17T23:51:23.701Z,7.40
2019-02-17T23:53:51.804Z,7.40
2019-02-17T23:56:19.948Z,7.40
2019-02-17T23:58:48.061Z,7.40
